PWSweather.com
Personal Weather Stations
Station Observations
KCAOCEAN4
Jeffries Ranch, Oceanside, CA 92057

Jeffries RanchOceanside, CA 92057

Lat: 33.2463208, Lon: -117.25335080000002

Elevation: 207

Station Type: Davis Vantage Vue

jeffriesranchweather.com

High Low Average
Temperature 73.9°F23.3°C 56.5°F13.6°C 61.4°F16.3°C
Dew Point 59.7°F15.4°C 51.8°F11.0°C 55.0°F12.8°C
Winds 8.9 mph 14.3 kmh Calm Calm 1.0 mph SE1.6 kmh SE
Wind Gusts 21.0 mph33.8 kmh -- 3.0 mph4.8 kmh
Humidity 94% 51% 81%
Pressure 29.96 in1014.6 mb 29.80 in1009.1 mb -
Precipitation 0.33 in8.4 mm - -
Hour Temp Dew Point Humidity Winds Wind Gusts Pressure Precip Precip Rate Daily Precip Total
12:00 AM 57.9°F14.4°C 54.1°F12.3°C 87% Calm Calm -- 29.96 in1014.6 mb 0.00 in0.0 mm 0.00 in0.0 mm 0.00 in0.0 mm
12:10 AM 58.1°F14.5°C 54.0°F12.2°C 86% Calm Calm 3.0 mph4.8 kmh 29.95 in1014.2 mb 0.00 in0.0 mm 0.00 in0.0 mm 0.00 in0.0 mm
12:20 AM 58.3°F14.6°C 54.1°F12.3°C 86% Calm Calm 2.0 mph3.2 kmh 29.94 in1013.9 mb 0.00 in0.0 mm 0.00 in0.0 mm 0.00 in0.0 mm
12:30 AM 58.3°F14.6°C 53.8°F12.1°C 85% Calm Calm 2.0 mph3.2 kmh 29.95 in1014.2 mb 0.00 in0.0 mm 0.00 in0.0 mm 0.00 in0.0 mm
12:40 AM 58.3°F14.6°C 54.1°F12.3°C 86% Calm Calm -- 29.95 in1014.2 mb 0.00 in0.0 mm 0.00 in0.0 mm 0.00 in0.0 mm
12:50 AM 57.9°F14.4°C 53.8°F12.1°C 86% Calm Calm 0.9 mph1.4 kmh 29.96 in1014.6 mb 0.00 in0.0 mm 0.00 in0.0 mm 0.00 in0.0 mm
01:00 AM 57.7°F14.3°C 53.6°F12.0°C 86% Calm Calm -- 29.96 in1014.6 mb 0.00 in0.0 mm 0.00 in0.0 mm 0.00 in0.0 mm
01:10 AM 57.7°F14.3°C 54.0°F12.2°C 87% Calm Calm -- 29.95 in1014.2 mb 0.00 in0.0 mm 0.00 in0.0 mm 0.00 in0.0 mm
01:20 AM 57.7°F14.3°C 54.0°F12.2°C 87% Calm Calm 0.9 mph1.4 kmh 29.94 in1013.9 mb 0.00 in0.0 mm 0.00 in0.0 mm 0.00 in0.0 mm
01:30 AM 57.9°F14.4°C 54.1°F12.3°C 87% Calm Calm 2.0 mph3.2 kmh 29.93 in1013.5 mb 0.00 in0.0 mm 0.00 in0.0 mm 0.00 in0.0 mm
01:40 AM 57.7°F14.3°C 53.6°F12.0°C 86% 0.9 mph ENE1.4 kmh ENE 2.0 mph3.2 kmh 29.93 in1013.5 mb 0.00 in0.0 mm 0.00 in0.0 mm 0.00 in0.0 mm
01:50 AM 57.7°F14.3°C 53.6°F12.0°C 86% Calm Calm 2.0 mph3.2 kmh 29.93 in1013.5 mb 0.00 in0.0 mm 0.00 in0.0 mm 0.00 in0.0 mm
02:00 AM 57.7°F14.3°C 53.2°F11.8°C 85% Calm Calm 2.0 mph3.2 kmh 29.93 in1013.5 mb 0.00 in0.0 mm 0.00 in0.0 mm 0.00 in0.0 mm
02:10 AM 57.6°F14.2°C 53.1°F11.7°C 85% Calm Calm 0.9 mph1.4 kmh 29.93 in1013.5 mb 0.00 in0.0 mm 0.00 in0.0 mm 0.00 in0.0 mm
02:20 AM 57.4°F14.1°C 53.2°F11.8°C 86% Calm Calm 0.9 mph1.4 kmh 29.93 in1013.5 mb 0.00 in0.0 mm 0.00 in0.0 mm 0.00 in0.0 mm
02:30 AM 57.2°F14.0°C 53.1°F11.7°C 86% Calm Calm 2.0 mph3.2 kmh 29.93 in1013.5 mb 0.00 in0.0 mm 0.00 in0.0 mm 0.00 in0.0 mm
02:40 AM 57.0°F13.9°C 52.9°F11.6°C 86% Calm Calm -- 29.93 in1013.5 mb 0.00 in0.0 mm 0.00 in0.0 mm 0.00 in0.0 mm
02:50 AM 57.0°F13.9°C 52.9°F11.6°C 86% Calm Calm 0.9 mph1.4 kmh 29.92 in1013.2 mb 0.00 in0.0 mm 0.00 in0.0 mm 0.00 in0.0 mm
03:00 AM 56.8°F13.8°C 52.7°F11.5°C 86% Calm Calm 0.9 mph1.4 kmh 29.92 in1013.2 mb 0.00 in0.0 mm 0.00 in0.0 mm 0.00 in0.0 mm
03:10 AM 56.8°F13.8°C 52.7°F11.5°C 86% Calm Calm 0.9 mph1.4 kmh 29.92 in1013.2 mb 0.00 in0.0 mm 0.00 in0.0 mm 0.00 in0.0 mm
03:20 AM 56.7°F13.7°C 52.9°F11.6°C 87% Calm Calm 0.9 mph1.4 kmh 29.92 in1013.2 mb 0.00 in0.0 mm 0.00 in0.0 mm 0.00 in0.0 mm
03:30 AM 56.7°F13.7°C 52.9°F11.6°C 87% Calm Calm 0.9 mph1.4 kmh 29.91 in1012.9 mb 0.00 in0.0 mm 0.00 in0.0 mm 0.00 in0.0 mm
03:40 AM 56.7°F13.7°C 52.9°F11.6°C 87% Calm Calm 0.9 mph1.4 kmh 29.91 in1012.9 mb 0.00 in0.0 mm 0.00 in0.0 mm 0.00 in0.0 mm
03:51 AM 56.7°F13.7°C 53.1°F11.7°C 88% Calm Calm -- 29.91 in1012.9 mb 0.00 in0.0 mm 0.00 in0.0 mm 0.00 in0.0 mm
04:01 AM 56.7°F13.7°C 52.9°F11.6°C 87% Calm Calm -- 29.91 in1012.9 mb 0.00 in0.0 mm 0.00 in0.0 mm 0.00 in0.0 mm
04:11 AM 57.0°F13.9°C 52.9°F11.6°C 86% Calm Calm 2.0 mph3.2 kmh 29.91 in1012.9 mb 0.00 in0.0 mm 0.00 in0.0 mm 0.00 in0.0 mm
04:21 AM 57.0°F13.9°C 52.9°F11.6°C 86% Calm Calm 0.9 mph1.4 kmh 29.91 in1012.9 mb 0.00 in0.0 mm 0.00 in0.0 mm 0.00 in0.0 mm
04:31 AM 56.8°F13.8°C 52.7°F11.5°C 86% Calm Calm -- 29.91 in1012.9 mb 0.00 in0.0 mm 0.00 in0.0 mm 0.00 in0.0 mm
04:41 AM 56.7°F13.7°C 52.9°F11.6°C 87% Calm Calm 1.0 mph1.6 kmh 29.91 in1012.9 mb 0.00 in0.0 mm 0.00 in0.0 mm 0.00 in0.0 mm
04:51 AM 56.7°F13.7°C 52.9°F11.6°C 87% Calm Calm 0.9 mph1.4 kmh 29.91 in1012.9 mb 0.00 in0.0 mm 0.00 in0.0 mm 0.00 in0.0 mm
05:01 AM 56.5°F13.6°C 52.9°F11.6°C 88% Calm Calm 0.9 mph1.4 kmh 29.91 in1012.9 mb 0.00 in0.0 mm 0.00 in0.0 mm 0.00 in0.0 mm
05:11 AM 56.7°F13.7°C 53.1°F11.7°C 88% Calm Calm 0.9 mph1.4 kmh 29.90 in1012.5 mb 0.00 in0.0 mm 0.00 in0.0 mm 0.00 in0.0 mm
05:21 AM 56.7°F13.7°C 53.1°F11.7°C 88% Calm Calm -- 29.90 in1012.5 mb 0.00 in0.0 mm 0.00 in0.0 mm 0.00 in0.0 mm
05:31 AM 56.7°F13.7°C 52.9°F11.6°C 87% Calm Calm -- 29.91 in1012.9 mb 0.00 in0.0 mm 0.00 in0.0 mm 0.00 in0.0 mm
05:41 AM 56.7°F13.7°C 52.9°F11.6°C 87% Calm Calm -- 29.91 in1012.9 mb 0.00 in0.0 mm 0.00 in0.0 mm 0.00 in0.0 mm
05:51 AM 56.7°F13.7°C 52.5°F11.4°C 86% Calm Calm -- 29.91 in1012.9 mb 0.00 in0.0 mm 0.00 in0.0 mm 0.00 in0.0 mm
06:01 AM 56.8°F13.8°C 52.0°F11.1°C 84% 0.9 mph ENE1.4 kmh ENE 4.0 mph6.4 kmh 29.90 in1012.5 mb 0.00 in0.0 mm 0.00 in0.0 mm 0.00 in0.0 mm
06:11 AM 57.2°F14.0°C 52.2°F11.2°C 83% 0.9 mph E1.4 kmh E 2.9 mph4.7 kmh 29.90 in1012.5 mb 0.00 in0.0 mm 0.00 in0.0 mm 0.00 in0.0 mm
06:21 AM 57.2°F14.0°C 52.2°F11.2°C 83% 0.9 mph E1.4 kmh E 3.0 mph4.8 kmh 29.90 in1012.5 mb 0.00 in0.0 mm 0.00 in0.0 mm 0.00 in0.0 mm
06:31 AM 57.4°F14.1°C 52.0°F11.1°C 82% 0.9 mph ENE1.4 kmh ENE 2.9 mph4.7 kmh 29.90 in1012.5 mb 0.00 in0.0 mm 0.00 in0.0 mm 0.00 in0.0 mm
06:41 AM 57.2°F14.0°C 52.2°F11.2°C 83% 0.9 mph ENE1.4 kmh ENE 2.9 mph4.7 kmh 29.90 in1012.5 mb 0.00 in0.0 mm 0.00 in0.0 mm 0.00 in0.0 mm
06:51 AM 57.4°F14.1°C 52.0°F11.1°C 82% 0.9 mph E1.4 kmh E 2.9 mph4.7 kmh 29.90 in1012.5 mb 0.00 in0.0 mm 0.00 in0.0 mm 0.00 in0.0 mm
07:01 AM 57.2°F14.0°C 51.8°F11.0°C 82% Calm Calm 2.0 mph3.2 kmh 29.91 in1012.9 mb 0.00 in0.0 mm 0.00 in0.0 mm 0.00 in0.0 mm
07:11 AM 57.0°F13.9°C 52.0°F11.1°C 83% Calm Calm 0.9 mph1.4 kmh 29.91 in1012.9 mb 0.00 in0.0 mm 0.00 in0.0 mm 0.00 in0.0 mm
07:21 AM 57.0°F13.9°C 52.2°F11.2°C 84% Calm Calm 0.9 mph1.4 kmh 29.91 in1012.9 mb 0.00 in0.0 mm 0.00 in0.0 mm 0.00 in0.0 mm
07:31 AM 57.2°F14.0°C 52.2°F11.2°C 83% 0.9 mph ENE1.4 kmh ENE 2.0 mph3.2 kmh 29.90 in1012.5 mb 0.00 in0.0 mm 0.00 in0.0 mm 0.00 in0.0 mm
07:41 AM 57.4°F14.1°C 52.0°F11.1°C 82% 0.9 mph SE1.4 kmh SE 4.0 mph6.4 kmh 29.91 in1012.9 mb 0.00 in0.0 mm 0.00 in0.0 mm 0.00 in0.0 mm
07:51 AM 57.2°F14.0°C 52.3°F11.3°C 84% Calm Calm -- 29.92 in1013.2 mb 0.00 in0.0 mm 0.00 in0.0 mm 0.00 in0.0 mm
08:01 AM 57.0°F13.9°C 52.2°F11.2°C 84% Calm Calm -- 29.92 in1013.2 mb 0.00 in0.0 mm 0.00 in0.0 mm 0.00 in0.0 mm
08:11 AM 56.8°F13.8°C 52.3°F11.3°C 85% Calm Calm -- 29.92 in1013.2 mb 0.00 in0.0 mm 0.00 in0.0 mm 0.00 in0.0 mm
08:21 AM 56.8°F13.8°C 52.7°F11.5°C 86% Calm Calm 2.0 mph3.2 kmh 29.93 in1013.5 mb 0.00 in0.0 mm 0.00 in0.0 mm 0.00 in0.0 mm
08:31 AM 57.4°F14.1°C 53.2°F11.8°C 86% Calm Calm 2.0 mph3.2 kmh 29.93 in1013.5 mb 0.00 in0.0 mm 0.00 in0.0 mm 0.00 in0.0 mm
08:41 AM 57.2°F14.0°C 52.7°F11.5°C 85% Calm Calm 2.0 mph3.2 kmh 29.93 in1013.5 mb 0.00 in0.0 mm 0.00 in0.0 mm 0.00 in0.0 mm
08:51 AM 57.4°F14.1°C 52.9°F11.6°C 85% Calm Calm 0.9 mph1.4 kmh 29.92 in1013.2 mb 0.00 in0.0 mm 0.00 in0.0 mm 0.00 in0.0 mm
09:01 AM 57.6°F14.2°C 52.7°F11.5°C 84% Calm Calm 2.0 mph3.2 kmh 29.92 in1013.2 mb 0.00 in0.0 mm 0.00 in0.0 mm 0.00 in0.0 mm
09:11 AM 58.3°F14.6°C 53.4°F11.9°C 84% Calm Calm 2.0 mph3.2 kmh 29.92 in1013.2 mb 0.00 in0.0 mm 0.00 in0.0 mm 0.00 in0.0 mm
09:21 AM 58.3°F14.6°C 52.5°F11.4°C 81% 0.9 mph NE1.4 kmh NE 2.0 mph3.2 kmh 29.92 in1013.2 mb 0.00 in0.0 mm 0.00 in0.0 mm 0.00 in0.0 mm
09:31 AM 58.5°F14.7°C 52.0°F11.1°C 79% 2.0 mph NE3.2 kmh NE 2.9 mph4.7 kmh 29.92 in1013.2 mb 0.00 in0.0 mm 0.00 in0.0 mm 0.00 in0.0 mm
09:41 AM 58.8°F14.9°C 52.3°F11.3°C 79% 2.0 mph ENE3.2 kmh ENE 4.9 mph7.9 kmh 29.92 in1013.2 mb 0.00 in0.0 mm 0.00 in0.0 mm 0.00 in0.0 mm
09:51 AM 59.4°F15.2°C 52.2°F11.2°C 77% 2.9 mph NE4.7 kmh NE 6.9 mph11.1 kmh 29.91 in1012.9 mb 0.00 in0.0 mm 0.00 in0.0 mm 0.00 in0.0 mm
10:01 AM 59.9°F15.5°C 52.3°F11.3°C 76% 2.0 mph W3.2 kmh W 6.0 mph9.7 kmh 29.92 in1013.2 mb 0.00 in0.0 mm 0.00 in0.0 mm 0.00 in0.0 mm
10:11 AM 60.6°F15.9°C 52.7°F11.5°C 75% Calm Calm 2.0 mph3.2 kmh 29.93 in1013.5 mb 0.00 in0.0 mm 0.00 in0.0 mm 0.00 in0.0 mm
10:21 AM 61.2°F16.2°C 52.5°F11.4°C 73% 0.9 mph E1.4 kmh E 2.0 mph3.2 kmh 29.92 in1013.2 mb 0.00 in0.0 mm 0.00 in0.0 mm 0.00 in0.0 mm
10:31 AM 62.1°F16.7°C 52.5°F11.4°C 71% 0.9 mph ENE1.4 kmh ENE 4.0 mph6.4 kmh 29.92 in1013.2 mb 0.00 in0.0 mm 0.00 in0.0 mm 0.00 in0.0 mm
10:41 AM 62.4°F16.9°C 52.5°F11.4°C 70% Calm Calm 2.9 mph4.7 kmh 29.91 in1012.9 mb 0.00 in0.0 mm 0.00 in0.0 mm 0.00 in0.0 mm
10:51 AM 62.8°F17.1°C 52.0°F11.1°C 68% 0.9 mph NE1.4 kmh NE 4.0 mph6.4 kmh 29.91 in1012.9 mb 0.00 in0.0 mm 0.00 in0.0 mm 0.00 in0.0 mm
11:01 AM 63.3°F17.4°C 52.5°F11.4°C 68% 0.9 mph ENE1.4 kmh ENE 2.9 mph4.7 kmh 29.91 in1012.9 mb 0.00 in0.0 mm 0.00 in0.0 mm 0.00 in0.0 mm
11:11 AM 64.2°F17.9°C 52.7°F11.5°C 66% 0.9 mph E1.4 kmh E 2.9 mph4.7 kmh 29.90 in1012.5 mb 0.00 in0.0 mm 0.00 in0.0 mm 0.00 in0.0 mm
11:21 AM 65.1°F18.4°C 53.1°F11.7°C 65% Calm Calm 0.9 mph1.4 kmh 29.90 in1012.5 mb 0.00 in0.0 mm 0.00 in0.0 mm 0.00 in0.0 mm
11:31 AM 66.0°F18.9°C 53.4°F11.9°C 64% Calm Calm -- 29.90 in1012.5 mb 0.00 in0.0 mm 0.00 in0.0 mm 0.00 in0.0 mm
11:41 AM 66.7°F19.3°C 53.8°F12.1°C 63% Calm Calm -- 29.90 in1012.5 mb 0.00 in0.0 mm 0.00 in0.0 mm 0.00 in0.0 mm
11:51 AM 66.9°F19.4°C 54.3°F12.4°C 64% Calm Calm -- 29.90 in1012.5 mb 0.00 in0.0 mm 0.00 in0.0 mm 0.00 in0.0 mm
12:01 PM 66.9°F19.4°C 53.1°F11.7°C 61% Calm Calm -- 29.90 in1012.5 mb 0.00 in0.0 mm 0.00 in0.0 mm 0.00 in0.0 mm
12:11 PM 67.5°F19.7°C 54.5°F12.5°C 63% Calm Calm 1.0 mph1.6 kmh 29.89 in1012.2 mb 0.00 in0.0 mm 0.00 in0.0 mm 0.00 in0.0 mm
12:21 PM 67.6°F19.8°C 54.7°F12.6°C 63% Calm Calm 0.9 mph1.4 kmh 29.88 in1011.9 mb 0.00 in0.0 mm 0.00 in0.0 mm 0.00 in0.0 mm
12:31 PM 68.2°F20.1°C 54.7°F12.6°C 62% Calm Calm 0.9 mph1.4 kmh 29.88 in1011.9 mb 0.00 in0.0 mm 0.00 in0.0 mm 0.00 in0.0 mm
12:41 PM 68.7°F20.4°C 55.6°F13.1°C 63% Calm Calm -- 29.88 in1011.9 mb 0.00 in0.0 mm 0.00 in0.0 mm 0.00 in0.0 mm
12:51 PM 69.3°F20.7°C 55.8°F13.2°C 62% Calm Calm 0.9 mph1.4 kmh 29.87 in1011.5 mb 0.00 in0.0 mm 0.00 in0.0 mm 0.00 in0.0 mm
01:01 PM 69.6°F20.9°C 56.5°F13.6°C 63% Calm Calm 0.9 mph1.4 kmh 29.86 in1011.2 mb 0.00 in0.0 mm 0.00 in0.0 mm 0.00 in0.0 mm
01:11 PM 70.3°F21.3°C 56.3°F13.5°C 61% Calm Calm 2.0 mph3.2 kmh 29.86 in1011.2 mb 0.00 in0.0 mm 0.00 in0.0 mm 0.00 in0.0 mm
01:21 PM 70.2°F21.2°C 55.6°F13.1°C 60% Calm Calm 2.0 mph3.2 kmh 29.85 in1010.8 mb 0.00 in0.0 mm 0.00 in0.0 mm 0.00 in0.0 mm
01:31 PM 70.3°F21.3°C 55.4°F13.0°C 59% Calm Calm 2.0 mph3.2 kmh 29.85 in1010.8 mb 0.00 in0.0 mm 0.00 in0.0 mm 0.00 in0.0 mm
01:41 PM 71.1°F21.7°C 54.5°F12.5°C 56% Calm Calm 2.0 mph3.2 kmh 29.85 in1010.8 mb 0.00 in0.0 mm 0.00 in0.0 mm 0.00 in0.0 mm
01:51 PM 72.7°F22.6°C 54.5°F12.5°C 53% Calm Calm 0.9 mph1.4 kmh 29.84 in1010.5 mb 0.00 in0.0 mm 0.00 in0.0 mm 0.00 in0.0 mm
02:01 PM 73.0°F22.8°C 54.9°F12.7°C 53% Calm Calm -- 29.84 in1010.5 mb 0.00 in0.0 mm 0.00 in0.0 mm 0.00 in0.0 mm
02:11 PM 73.9°F23.3°C 54.7°F12.6°C 51% Calm Calm -- 29.84 in1010.5 mb 0.00 in0.0 mm 0.00 in0.0 mm 0.00 in0.0 mm
02:21 PM 73.0°F22.8°C 54.3°F12.4°C 52% Calm Calm 1.0 mph1.6 kmh 29.84 in1010.5 mb 0.00 in0.0 mm 0.00 in0.0 mm 0.00 in0.0 mm
02:31 PM 72.3°F22.4°C 55.2°F12.9°C 55% 0.9 mph W1.4 kmh W 2.0 mph3.2 kmh 29.84 in1010.5 mb 0.00 in0.0 mm 0.00 in0.0 mm 0.00 in0.0 mm
02:41 PM 71.6°F22.0°C 56.5°F13.6°C 59% Calm Calm 0.9 mph1.4 kmh 29.84 in1010.5 mb 0.00 in0.0 mm 0.00 in0.0 mm 0.00 in0.0 mm
02:51 PM 71.2°F21.8°C 56.7°F13.7°C 60% Calm Calm 2.0 mph3.2 kmh 29.85 in1010.8 mb 0.00 in0.0 mm 0.00 in0.0 mm 0.00 in0.0 mm
03:01 PM 71.2°F21.8°C 56.1°F13.4°C 59% Calm Calm 1.0 mph1.6 kmh 29.85 in1010.8 mb 0.00 in0.0 mm 0.00 in0.0 mm 0.00 in0.0 mm
03:11 PM 70.9°F21.6°C 57.2°F14.0°C 62% Calm Calm 2.0 mph3.2 kmh 29.85 in1010.8 mb 0.00 in0.0 mm 0.00 in0.0 mm 0.00 in0.0 mm
03:21 PM 70.2°F21.2°C 55.2°F12.9°C 59% 2.0 mph SSW3.2 kmh SSW 6.0 mph9.7 kmh 29.85 in1010.8 mb 0.00 in0.0 mm 0.00 in0.0 mm 0.00 in0.0 mm
03:31 PM 69.4°F20.8°C 55.9°F13.3°C 62% 0.9 mph WSW1.4 kmh WSW 4.9 mph7.9 kmh 29.86 in1011.2 mb 0.00 in0.0 mm 0.00 in0.0 mm 0.00 in0.0 mm
03:41 PM 68.2°F20.1°C 56.8°F13.8°C 67% 0.9 mph WNW1.4 kmh WNW 4.9 mph7.9 kmh 29.86 in1011.2 mb 0.00 in0.0 mm 0.00 in0.0 mm 0.00 in0.0 mm
03:51 PM 67.5°F19.7°C 59.5°F15.3°C 76% 2.0 mph WNW3.2 kmh WNW 6.0 mph9.7 kmh 29.86 in1011.2 mb 0.00 in0.0 mm 0.00 in0.0 mm 0.00 in0.0 mm
04:01 PM 66.7°F19.3°C 59.7°F15.4°C 78% 2.0 mph NW3.2 kmh NW 4.0 mph6.4 kmh 29.87 in1011.5 mb 0.00 in0.0 mm 0.00 in0.0 mm 0.00 in0.0 mm
04:11 PM 66.2°F19.0°C 59.2°F15.1°C 78% 2.9 mph WNW4.7 kmh WNW 7.0 mph11.3 kmh 29.87 in1011.5 mb 0.00 in0.0 mm 0.00 in0.0 mm 0.00 in0.0 mm
04:21 PM 66.0°F18.9°C 59.0°F15.0°C 78% Calm Calm 2.0 mph3.2 kmh 29.86 in1011.2 mb 0.00 in0.0 mm 0.00 in0.0 mm 0.00 in0.0 mm
04:31 PM 65.8°F18.8°C 59.2°F15.1°C 79% Calm Calm 0.9 mph1.4 kmh 29.85 in1010.8 mb 0.00 in0.0 mm 0.00 in0.0 mm 0.00 in0.0 mm
04:41 PM 65.7°F18.7°C 59.4°F15.2°C 80% 0.9 mph E1.4 kmh E 2.0 mph3.2 kmh 29.85 in1010.8 mb 0.00 in0.0 mm 0.00 in0.0 mm 0.00 in0.0 mm
04:51 PM 65.5°F18.6°C 59.2°F15.1°C 80% 0.9 mph NE1.4 kmh NE 2.0 mph3.2 kmh 29.85 in1010.8 mb 0.00 in0.0 mm 0.00 in0.0 mm 0.00 in0.0 mm
05:01 PM 65.8°F18.8°C 58.5°F14.7°C 77% 2.9 mph E4.7 kmh E 6.0 mph9.7 kmh 29.85 in1010.8 mb 0.00 in0.0 mm 0.00 in0.0 mm 0.00 in0.0 mm
05:11 PM 66.2°F19.0°C 57.7°F14.3°C 74% 4.0 mph E6.4 kmh E 6.9 mph11.1 kmh 29.85 in1010.8 mb 0.00 in0.0 mm 0.00 in0.0 mm 0.00 in0.0 mm
05:21 PM 66.4°F19.1°C 57.4°F14.1°C 73% 2.9 mph NE4.7 kmh NE 6.0 mph9.7 kmh 29.84 in1010.5 mb 0.00 in0.0 mm 0.00 in0.0 mm 0.00 in0.0 mm
05:31 PM 66.2°F19.0°C 57.7°F14.3°C 74% 2.0 mph NE3.2 kmh NE 4.9 mph7.9 kmh 29.85 in1010.8 mb 0.00 in0.0 mm 0.00 in0.0 mm 0.00 in0.0 mm
05:41 PM 65.7°F18.7°C 57.6°F14.2°C 75% 0.9 mph NE1.4 kmh NE 2.9 mph4.7 kmh 29.85 in1010.8 mb 0.00 in0.0 mm 0.00 in0.0 mm 0.00 in0.0 mm
05:51 PM 65.1°F18.4°C 57.7°F14.3°C 77% 2.9 mph W4.7 kmh W 8.1 mph13.0 kmh 29.89 in1012.2 mb 0.00 in0.0 mm 0.00 in0.0 mm 0.00 in0.0 mm
06:01 PM 64.8°F18.2°C 57.4°F14.1°C 77% 8.9 mph SSW14.3 kmh SSW 21.0 mph33.8 kmh 29.92 in1013.2 mb 0.01 in0.3 mm 0.01 in0.3 mm 0.01 in0.3 mm
06:11 PM 62.8°F17.1°C 57.6°F14.2°C 83% 4.9 mph S7.9 kmh S 21.0 mph33.8 kmh 29.93 in1013.5 mb 0.04 in1.0 mm 0.18 in4.6 mm 0.04 in1.0 mm
06:21 PM 61.5°F16.4°C 57.0°F13.9°C 85% 0.9 mph SW1.4 kmh SW 4.0 mph6.4 kmh 29.89 in1012.2 mb 0.08 in2.0 mm 0.24 in6.1 mm 0.08 in2.0 mm
06:31 PM 61.0°F16.1°C 57.4°F14.1°C 88% Calm Calm 0.9 mph1.4 kmh 29.89 in1012.2 mb 0.09 in2.3 mm 0.06 in1.5 mm 0.09 in2.3 mm
06:41 PM 60.4°F15.8°C 57.6°F14.2°C 90% 2.0 mph ENE3.2 kmh ENE 6.0 mph9.7 kmh 29.87 in1011.5 mb 0.09 in2.3 mm 0.00 in0.0 mm 0.09 in2.3 mm
06:51 PM 60.1°F15.6°C 57.4°F14.1°C 91% 2.0 mph E3.2 kmh E 4.9 mph7.9 kmh 29.87 in1011.5 mb 0.09 in2.3 mm 0.00 in0.0 mm 0.09 in2.3 mm
07:01 PM 59.7°F15.4°C 57.4°F14.1°C 92% 2.9 mph ENE4.7 kmh ENE 6.0 mph9.7 kmh 29.87 in1011.5 mb 0.08 in2.0 mm 0.00 in0.0 mm 0.09 in2.3 mm
07:11 PM 59.9°F15.5°C 57.6°F14.2°C 92% 4.0 mph ESE6.4 kmh ESE 6.9 mph11.1 kmh 29.86 in1011.2 mb 0.05 in1.3 mm 0.00 in0.0 mm 0.09 in2.3 mm
07:21 PM 59.7°F15.4°C 57.4°F14.1°C 92% 2.9 mph E4.7 kmh E 6.9 mph11.1 kmh 29.86 in1011.2 mb 0.01 in0.3 mm 0.00 in0.0 mm 0.09 in2.3 mm
07:31 PM 59.7°F15.4°C 57.4°F14.1°C 92% 2.9 mph ENE4.7 kmh ENE 6.0 mph9.7 kmh 29.85 in1010.8 mb 0.00 in0.0 mm 0.00 in0.0 mm 0.09 in2.3 mm
07:41 PM 59.9°F15.5°C 57.6°F14.2°C 92% 4.0 mph E6.4 kmh E 6.0 mph9.7 kmh 29.85 in1010.8 mb 0.00 in0.0 mm 0.00 in0.0 mm 0.09 in2.3 mm
07:51 PM 60.1°F15.6°C 57.7°F14.3°C 92% 4.0 mph E6.4 kmh E 7.0 mph11.3 kmh 29.85 in1010.8 mb 0.00 in0.0 mm 0.00 in0.0 mm 0.09 in2.3 mm
08:01 PM 60.1°F15.6°C 57.4°F14.1°C 91% 4.0 mph NE6.4 kmh NE 6.0 mph9.7 kmh 29.84 in1010.5 mb 0.00 in0.0 mm 0.00 in0.0 mm 0.09 in2.3 mm
08:11 PM 60.1°F15.6°C 57.4°F14.1°C 91% 2.9 mph ENE4.7 kmh ENE 6.9 mph11.1 kmh 29.83 in1010.2 mb 0.00 in0.0 mm 0.00 in0.0 mm 0.09 in2.3 mm
08:21 PM 59.7°F15.4°C 57.0°F13.9°C 91% 2.9 mph ENE4.7 kmh ENE 6.9 mph11.1 kmh 29.83 in1010.2 mb 0.00 in0.0 mm 0.00 in0.0 mm 0.09 in2.3 mm
08:31 PM 59.7°F15.4°C 57.4°F14.1°C 92% 2.0 mph NE3.2 kmh NE 4.9 mph7.9 kmh 29.83 in1010.2 mb 0.00 in0.0 mm 0.00 in0.0 mm 0.09 in2.3 mm
08:41 PM 59.5°F15.3°C 57.2°F14.0°C 92% 4.0 mph NE6.4 kmh NE 7.0 mph11.3 kmh 29.83 in1010.2 mb 0.00 in0.0 mm 0.00 in0.0 mm 0.09 in2.3 mm
08:51 PM 59.4°F15.2°C 57.4°F14.1°C 93% 4.9 mph NE7.9 kmh NE 8.9 mph14.3 kmh 29.82 in1009.8 mb 0.00 in0.0 mm 0.00 in0.0 mm 0.09 in2.3 mm
09:01 PM 59.4°F15.2°C 57.4°F14.1°C 93% 4.9 mph NE7.9 kmh NE 11.0 mph17.7 kmh 29.81 in1009.5 mb 0.00 in0.0 mm 0.00 in0.0 mm 0.09 in2.3 mm
09:11 PM 59.4°F15.2°C 57.0°F13.9°C 92% 6.0 mph NE9.7 kmh NE 12.0 mph19.3 kmh 29.80 in1009.1 mb 0.00 in0.0 mm 0.00 in0.0 mm 0.09 in2.3 mm
09:21 PM 59.5°F15.3°C 57.2°F14.0°C 92% 4.0 mph NE6.4 kmh NE 8.1 mph13.0 kmh 29.80 in1009.1 mb 0.00 in0.0 mm 0.00 in0.0 mm 0.09 in2.3 mm
09:31 PM 59.7°F15.4°C 57.0°F13.9°C 91% 2.0 mph ENE3.2 kmh ENE 4.9 mph7.9 kmh 29.80 in1009.1 mb 0.00 in0.0 mm 0.00 in0.0 mm 0.09 in2.3 mm
09:41 PM 59.7°F15.4°C 57.0°F13.9°C 91% Calm Calm 2.0 mph3.2 kmh 29.80 in1009.1 mb 0.00 in0.0 mm 0.00 in0.0 mm 0.09 in2.3 mm
09:51 PM 59.7°F15.4°C 57.0°F13.9°C 91% Calm Calm 0.9 mph1.4 kmh 29.80 in1009.1 mb 0.00 in0.0 mm 0.00 in0.0 mm 0.09 in2.3 mm
10:01 PM 59.5°F15.3°C 56.8°F13.8°C 91% Calm Calm 0.9 mph1.4 kmh 29.80 in1009.1 mb 0.00 in0.0 mm 0.00 in0.0 mm 0.09 in2.3 mm
10:11 PM 59.4°F15.2°C 56.7°F13.7°C 91% Calm Calm 0.9 mph1.4 kmh 29.80 in1009.1 mb 0.00 in0.0 mm 0.00 in0.0 mm 0.09 in2.3 mm
10:21 PM 59.4°F15.2°C 57.0°F13.9°C 92% Calm Calm 0.9 mph1.4 kmh 29.80 in1009.1 mb 0.00 in0.0 mm 0.00 in0.0 mm 0.09 in2.3 mm
10:31 PM 59.4°F15.2°C 57.0°F13.9°C 92% Calm Calm 0.9 mph1.4 kmh 29.81 in1009.5 mb 0.00 in0.0 mm 0.00 in0.0 mm 0.09 in2.3 mm
10:41 PM 59.4°F15.2°C 57.0°F13.9°C 92% Calm Calm 1.0 mph1.6 kmh 29.81 in1009.5 mb 0.01 in0.3 mm 0.06 in1.5 mm 0.10 in2.5 mm
10:51 PM 59.2°F15.1°C 56.8°F13.8°C 92% 0.9 mph ESE1.4 kmh ESE 2.9 mph4.7 kmh 29.81 in1009.5 mb 0.01 in0.3 mm 0.00 in0.0 mm 0.10 in2.5 mm
11:01 PM 59.2°F15.1°C 57.2°F14.0°C 93% 0.9 mph ENE1.4 kmh ENE 2.9 mph4.7 kmh 29.80 in1009.1 mb 0.01 in0.3 mm 0.00 in0.0 mm 0.10 in2.5 mm
11:11 PM 59.5°F15.3°C 57.2°F14.0°C 92% 2.0 mph ENE3.2 kmh ENE 5.0 mph8.0 kmh 29.81 in1009.5 mb 0.01 in0.3 mm 0.00 in0.0 mm 0.10 in2.5 mm
11:21 PM 59.5°F15.3°C 57.2°F14.0°C 92% Calm Calm 2.0 mph3.2 kmh 29.81 in1009.5 mb 0.01 in0.3 mm 0.00 in0.0 mm 0.11 in2.8 mm
11:31 PM 59.5°F15.3°C 57.2°F14.0°C 92% Calm Calm 0.9 mph1.4 kmh 29.82 in1009.8 mb 0.02 in0.5 mm 0.06 in1.5 mm 0.11 in2.8 mm
11:41 PM 59.5°F15.3°C 57.2°F14.0°C 92% 0.9 mph SE1.4 kmh SE 2.0 mph3.2 kmh 29.85 in1010.8 mb 0.01 in0.3 mm 0.00 in0.0 mm 0.11 in2.8 mm
11:51 PM 59.5°F15.3°C 57.2°F14.0°C 92% 2.0 mph SE3.2 kmh SE 4.9 mph7.9 kmh 29.84 in1010.5 mb 0.06 in1.5 mm 0.30 in7.6 mm 0.16 in4.1 mm